KEGI/EGI METAR and TAF weather

Enter ICAO airport designator
Station Type Date Time Source
KEGI METAR 2019/11/18 10:56 UTC NOAA

KEGI 181056Z AUTO 00000KT 10SM CLR 05/05 A2989 RMK AO2 SLP123 T00540053 $


Station Type Date Time Source
KEGI Decoded METAR 2019/11/18 10:56 UTC NOAA

Duke Field / Eglin Auxiliary, FL, United States (KEGI) 30-39N 086-31W
Nov 18, 2019 - 05:56 AM EST / 2019.11.18 1056 UTC
Wind: Calm:0
Visibility: 10 mile(s):0
Sky conditions: clear
Temperature: 41.7 F (5.4 C)
Dew Point: 41.5 F (5.3 C)
Relative Humidity: 99%
Pressure (altimeter): 29.89 in. Hg (1012 hPa)
ob: KEGI 181056Z AUTO 00000KT 10SM CLR 05/05 A2989 RMK AO2 SLP123 T00540053
cycle: 11

Station Type Date Time Source
KEGI TAF 2019/11/18 10:04 UTC NOAA

TAF KEGI 181000Z 1810/1916 32006KT 9999 FEW030 QNH2989INS
BECMG 1818/1819 30009KT 9999 SCT250 QNH2983INS
BECMG 1905/1906 30006KT 9999 FEW100 QNH2990INS TX19/1819Z TN06/1811Z LAST NO
AMDS AFT 1810 NEXT 1813

Example: see airport list